sensor_id;sensor_type;location;lat;lon;timestamp;P1;durP1;ratioP1;P2;durP2;ratioP2
63016;SDS011;50274;45.640;11.756;2023-08-06T00:00:44;3.50;;;1.10;;
63016;SDS011;50274;45.640;11.756;2023-08-06T00:03:10;3.73;;;1.20;;
63016;SDS011;50274;45.640;11.756;2023-08-06T00:05:36;3.17;;;1.20;;
63016;SDS011;50274;45.640;11.756;2023-08-06T00:08:01;3.67;;;1.00;;
63016;SDS011;50274;45.640;11.756;2023-08-06T00:10:27;4.32;;;1.38;;
63016;SDS011;50274;45.640;11.756;2023-08-06T00:12:53;3.58;;;0.80;;
63016;SDS011;50274;45.640;11.756;2023-08-06T00:15:19;3.13;;;1.00;;
63016;SDS011;50274;45.640;11.756;2023-08-06T00:17:45;6.40;;;1.30;;
63016;SDS011;50274;45.640;11.756;2023-08-06T00:20:11;4.97;;;1.33;;
63016;SDS011;50274;45.640;11.756;2023-08-06T00:22:37;5.00;;;0.90;;
63016;SDS011;50274;45.640;11.756;2023-08-06T00:25:03;5.60;;;1.60;;
63016;SDS011;50274;45.640;11.756;2023-08-06T00:27:29;4.25;;;1.13;;
63016;SDS011;50274;45.640;11.756;2023-08-06T00:29:55;3.40;;;1.13;;
63016;SDS011;50274;45.640;11.756;2023-08-06T00:32:21;5.97;;;1.23;;
63016;SDS011;50274;45.640;11.756;2023-08-06T00:34:47;5.40;;;1.10;;
63016;SDS011;50274;45.640;11.756;2023-08-06T00:37:15;4.82;;;1.35;;
63016;SDS011;50274;45.640;11.756;2023-08-06T00:39:44;4.22;;;1.38;;
63016;SDS011;50274;45.640;11.756;2023-08-06T00:42:10;3.90;;;1.00;;
63016;SDS011;50274;45.640;11.756;2023-08-06T00:44:37;3.35;;;1.05;;
63016;SDS011;50274;45.640;11.756;2023-08-06T00:47:03;4.05;;;1.30;;
63016;SDS011;50274;45.640;11.756;2023-08-06T00:49:29;4.30;;;0.90;;
63016;SDS011;50274;45.640;11.756;2023-08-06T00:51:55;3.60;;;1.10;;
63016;SDS011;50274;45.640;11.756;2023-08-06T00:54:22;4.37;;;1.20;;
63016;SDS011;50274;45.640;11.756;2023-08-06T00:56:49;4.20;;;1.27;;
63016;SDS011;50274;45.640;11.756;2023-08-06T00:59:15;4.20;;;1.00;;
63016;SDS011;50274;45.640;11.756;2023-08-06T01:01:41;6.30;;;1.10;;
63016;SDS011;50274;45.640;11.756;2023-08-06T01:04:07;4.13;;;1.20;;
63016;SDS011;50274;45.640;11.756;2023-08-06T01:09:17;6.43;;;1.13;;
63016;SDS011;50274;45.640;11.756;2023-08-06T01:12:00;3.78;;;1.05;;
63016;SDS011;50274;45.640;11.756;2023-08-06T01:15:28;4.13;;;1.17;;
63016;SDS011;50274;45.640;11.756;2023-08-06T01:17:35;6.40;;;1.03;;
63016;SDS011;50274;45.640;11.756;2023-08-06T01:20:01;5.03;;;1.40;;
63016;SDS011;50274;45.640;11.756;2023-08-06T01:22:27;4.55;;;1.50;;
63016;SDS011;50274;45.640;11.756;2023-08-06T01:24:53;3.93;;;1.47;;
63016;SDS011;50274;45.640;11.756;2023-08-06T01:29:47;3.70;;;1.15;;
63016;SDS011;50274;45.640;11.756;2023-08-06T01:32:20;4.55;;;1.73;;
63016;SDS011;50274;45.640;11.756;2023-08-06T01:34:46;5.33;;;1.03;;
63016;SDS011;50274;45.640;11.756;2023-08-06T01:37:14;6.53;;;1.80;;
63016;SDS011;50274;45.640;11.756;2023-08-06T01:39:42;8.70;;;1.58;;
63016;SDS011;50274;45.640;11.756;2023-08-06T01:42:08;5.90;;;1.52;;
63016;SDS011;50274;45.640;11.756;2023-08-06T01:44:34;3.57;;;1.33;;
63016;SDS011;50274;45.640;11.756;2023-08-06T01:47:00;4.53;;;1.27;;
63016;SDS011;50274;45.640;11.756;2023-08-06T01:49:26;5.38;;;1.38;;
63016;SDS011;50274;45.640;11.756;2023-08-06T01:51:52;5.50;;;1.50;;
63016;SDS011;50274;45.640;11.756;2023-08-06T01:54:17;5.40;;;1.38;;
63016;SDS011;50274;45.640;11.756;2023-08-06T01:56:43;6.03;;;1.43;;
63016;SDS011;50274;45.640;11.756;2023-08-06T01:59:09;3.80;;;1.47;;
63016;SDS011;50274;45.640;11.756;2023-08-06T02:01:35;6.55;;;1.60;;
63016;SDS011;50274;45.640;11.756;2023-08-06T02:04:00;7.23;;;1.90;;
63016;SDS011;50274;45.640;11.756;2023-08-06T02:06:26;4.25;;;1.52;;
63016;SDS011;50274;45.640;11.756;2023-08-06T02:08:52;6.47;;;1.70;;
63016;SDS011;50274;45.640;11.756;2023-08-06T02:11:18;3.92;;;1.30;;
63016;SDS011;50274;45.640;11.756;2023-08-06T02:13:44;4.28;;;1.50;;
63016;SDS011;50274;45.640;11.756;2023-08-06T02:16:11;4.70;;;1.70;;
63016;SDS011;50274;45.640;11.756;2023-08-06T02:18:37;4.83;;;1.40;;
63016;SDS011;50274;45.640;11.756;2023-08-06T02:21:03;4.10;;;1.60;;
63016;SDS011;50274;45.640;11.756;2023-08-06T02:23:29;4.30;;;1.60;;
63016;SDS011;50274;45.640;11.756;2023-08-06T02:25:58;4.22;;;1.50;;
63016;SDS011;50274;45.640;11.756;2023-08-06T02:28:24;4.07;;;1.77;;
63016;SDS011;50274;45.640;11.756;2023-08-06T02:30:50;5.57;;;1.53;;
63016;SDS011;50274;45.640;11.756;2023-08-06T02:33:17;3.92;;;1.50;;
63016;SDS011;50274;45.640;11.756;2023-08-06T02:35:42;5.13;;;1.17;;
63016;SDS011;50274;45.640;11.756;2023-08-06T02:38:08;4.03;;;1.52;;
63016;SDS011;50274;45.640;11.756;2023-08-06T02:40:34;4.97;;;1.57;;
63016;SDS011;50274;45.640;11.756;2023-08-06T02:43:00;4.40;;;1.60;;
63016;SDS011;50274;45.640;11.756;2023-08-06T02:45:25;7.63;;;1.70;;
63016;SDS011;50274;45.640;11.756;2023-08-06T02:47:51;4.38;;;1.65;;
63016;SDS011;50274;45.640;11.756;2023-08-06T02:50:17;4.53;;;1.50;;
63016;SDS011;50274;45.640;11.756;2023-08-06T02:52:43;3.93;;;1.87;;
63016;SDS011;50274;45.640;11.756;2023-08-06T02:55:09;3.80;;;1.48;;
63016;SDS011;50274;45.640;11.756;2023-08-06T02:57:35;6.38;;;1.70;;
63016;SDS011;50274;45.640;11.756;2023-08-06T03:00:01;5.10;;;1.30;;
63016;SDS011;50274;45.640;11.756;2023-08-06T03:02:28;4.03;;;1.48;;
63016;SDS011;50274;45.640;11.756;2023-08-06T03:04:53;5.57;;;1.70;;
63016;SDS011;50274;45.640;11.756;2023-08-06T03:07:19;5.73;;;1.43;;
63016;SDS011;50274;45.640;11.756;2023-08-06T03:09:45;4.03;;;1.38;;
63016;SDS011;50274;45.640;11.756;2023-08-06T03:12:11;5.07;;;1.63;;
63016;SDS011;50274;45.640;11.756;2023-08-06T03:14:37;4.97;;;1.30;;
63016;SDS011;50274;45.640;11.756;2023-08-06T03:17:03;3.72;;;1.33;;
63016;SDS011;50274;45.640;11.756;2023-08-06T03:19:29;5.82;;;1.40;;
63016;SDS011;50274;45.640;11.756;2023-08-06T03:21:55;7.50;;;1.47;;
63016;SDS011;50274;45.640;11.756;2023-08-06T03:24:20;4.03;;;1.20;;
63016;SDS011;50274;45.640;11.756;2023-08-06T03:26:46;4.82;;;1.40;;
63016;SDS011;50274;45.640;11.756;2023-08-06T03:29:12;4.47;;;1.27;;
63016;SDS011;50274;45.640;11.756;2023-08-06T03:31:38;4.20;;;1.25;;
63016;SDS011;50274;45.640;11.756;2023-08-06T03:34:04;5.10;;;1.50;;
63016;SDS011;50274;45.640;11.756;2023-08-06T03:36:30;5.18;;;1.40;;
63016;SDS011;50274;45.640;11.756;2023-08-06T03:38:55;3.97;;;1.58;;
63016;SDS011;50274;45.640;11.756;2023-08-06T03:41:21;4.53;;;1.43;;
63016;SDS011;50274;45.640;11.756;2023-08-06T03:43:47;6.43;;;1.30;;
63016;SDS011;50274;45.640;11.756;2023-08-06T03:46:13;5.63;;;1.20;;
63016;SDS011;50274;45.640;11.756;2023-08-06T03:48:39;4.68;;;1.10;;
63016;SDS011;50274;45.640;11.756;2023-08-06T03:51:05;5.10;;;1.17;;
63016;SDS011;50274;45.640;11.756;2023-08-06T03:53:30;4.45;;;1.00;;
63016;SDS011;50274;45.640;11.756;2023-08-06T03:55:56;5.67;;;1.50;;
63016;SDS011;50274;45.640;11.756;2023-08-06T03:58:25;4.30;;;1.10;;
63016;SDS011;50274;45.640;11.756;2023-08-06T04:00:58;4.15;;;1.10;;
63016;SDS011;50274;45.640;11.756;2023-08-06T04:03:25;5.65;;;1.20;;
63016;SDS011;50274;45.640;11.756;2023-08-06T04:05:51;5.70;;;1.05;;
63016;SDS011;50274;45.640;11.756;2023-08-06T04:08:17;3.60;;;1.00;;
63016;SDS011;50274;45.640;11.756;2023-08-06T04:10:42;6.63;;;1.00;;
63016;SDS011;50274;45.640;11.756;2023-08-06T04:13:08;4.37;;;0.93;;
63016;SDS011;50274;45.640;11.756;2023-08-06T04:15:34;3.17;;;0.93;;
63016;SDS011;50274;45.640;11.756;2023-08-06T04:18:00;5.70;;;1.27;;
63016;SDS011;50274;45.640;11.756;2023-08-06T04:20:26;3.93;;;1.10;;
63016;SDS011;50274;45.640;11.756;2023-08-06T04:22:54;4.25;;;1.23;;
63016;SDS011;50274;45.640;11.756;2023-08-06T04:25:20;4.53;;;0.90;;
63016;SDS011;50274;45.640;11.756;2023-08-06T04:27:47;5.20;;;0.90;;
63016;SDS011;50274;45.640;11.756;2023-08-06T04:30:13;3.13;;;0.90;;
63016;SDS011;50274;45.640;11.756;2023-08-06T04:32:39;4.68;;;1.10;;
63016;SDS011;50274;45.640;11.756;2023-08-06T04:35:05;4.15;;;0.90;;
63016;SDS011;50274;45.640;11.756;2023-08-06T04:37:31;3.80;;;1.00;;
63016;SDS011;50274;45.640;11.756;2023-08-06T04:39:57;4.85;;;1.00;;
63016;SDS011;50274;45.640;11.756;2023-08-06T04:42:22;3.40;;;0.75;;
63016;SDS011;50274;45.640;11.756;2023-08-06T04:44:48;3.00;;;0.60;;
63016;SDS011;50274;45.640;11.756;2023-08-06T04:47:15;3.35;;;0.80;;
63016;SDS011;50274;45.640;11.756;2023-08-06T04:49:40;3.25;;;0.77;;
63016;SDS011;50274;45.640;11.756;2023-08-06T04:52:06;3.73;;;0.77;;
63016;SDS011;50274;45.640;11.756;2023-08-06T04:54:33;4.35;;;1.10;;
63016;SDS011;50274;45.640;11.756;2023-08-06T04:56:59;5.13;;;1.00;;
63016;SDS011;50274;45.640;11.756;2023-08-06T04:59:25;3.58;;;0.90;;
63016;SDS011;50274;45.640;11.756;2023-08-06T05:01:51;3.10;;;0.80;;
63016;SDS011;50274;45.640;11.756;2023-08-06T05:04:16;3.10;;;0.80;;
63016;SDS011;50274;45.640;11.756;2023-08-06T05:06:42;3.47;;;0.63;;
63016;SDS011;50274;45.640;11.756;2023-08-06T05:09:08;4.30;;;0.80;;
63016;SDS011;50274;45.640;11.756;2023-08-06T05:11:34;2.50;;;0.70;;
63016;SDS011;50274;45.640;11.756;2023-08-06T05:14:00;5.20;;;0.90;;
63016;SDS011;50274;45.640;11.756;2023-08-06T05:16:25;3.22;;;0.85;;
63016;SDS011;50274;45.640;11.756;2023-08-06T05:18:51;3.45;;;0.80;;
63016;SDS011;50274;45.640;11.756;2023-08-06T05:21:17;4.60;;;0.67;;
63016;SDS011;50274;45.640;11.756;2023-08-06T05:23:43;3.45;;;0.90;;
63016;SDS011;50274;45.640;11.756;2023-08-06T05:26:09;3.10;;;0.80;;
63016;SDS011;50274;45.640;11.756;2023-08-06T05:28:34;3.03;;;0.80;;
63016;SDS011;50274;45.640;11.756;2023-08-06T05:31:04;11.40;;;3.00;;
63016;SDS011;50274;45.640;11.756;2023-08-06T05:33:30;14.60;;;4.63;;
63016;SDS011;50274;45.640;11.756;2023-08-06T05:35:56;20.75;;;6.00;;
63016;SDS011;50274;45.640;11.756;2023-08-06T05:38:21;13.15;;;4.13;;
63016;SDS011;50274;45.640;11.756;2023-08-06T05:40:47;7.30;;;1.90;;
63016;SDS011;50274;45.640;11.756;2023-08-06T05:43:14;5.60;;;1.38;;
63016;SDS011;50274;45.640;11.756;2023-08-06T05:45:43;7.97;;;2.63;;
63016;SDS011;50274;45.640;11.756;2023-08-06T05:48:10;14.95;;;5.55;;
63016;SDS011;50274;45.640;11.756;2023-08-06T05:50:36;18.37;;;8.50;;
63016;SDS011;50274;45.640;11.756;2023-08-06T05:53:02;24.25;;;8.55;;
63016;SDS011;50274;45.640;11.756;2023-08-06T05:55:27;12.77;;;4.50;;
63016;SDS011;50274;45.640;11.756;2023-08-06T05:57:53;7.17;;;2.30;;
63016;SDS011;50274;45.640;11.756;2023-08-06T06:00:20;5.20;;;1.35;;
63016;SDS011;50274;45.640;11.756;2023-08-06T06:02:46;2.85;;;0.77;;
63016;SDS011;50274;45.640;11.756;2023-08-06T06:05:12;9.27;;;2.43;;
63016;SDS011;50274;45.640;11.756;2023-08-06T06:07:38;6.65;;;2.33;;
63016;SDS011;50274;45.640;11.756;2023-08-06T06:10:04;4.72;;;1.38;;
63016;SDS011;50274;45.640;11.756;2023-08-06T06:12:30;5.15;;;1.38;;
63016;SDS011;50274;45.640;11.756;2023-08-06T06:14:56;4.00;;;0.93;;
63016;SDS011;50274;45.640;11.756;2023-08-06T06:17:22;4.53;;;1.20;;
63016;SDS011;50274;45.640;11.756;2023-08-06T06:19:48;4.50;;;0.90;;
63016;SDS011;50274;45.640;11.756;2023-08-06T06:22:14;3.45;;;0.90;;
63016;SDS011;50274;45.640;11.756;2023-08-06T06:24:39;5.53;;;0.73;;
63016;SDS011;50274;45.640;11.756;2023-08-06T06:27:05;3.70;;;0.80;;
63016;SDS011;50274;45.640;11.756;2023-08-06T06:29:31;3.83;;;1.00;;
63016;SDS011;50274;45.640;11.756;2023-08-06T06:31:57;5.22;;;1.80;;
63016;SDS011;50274;45.640;11.756;2023-08-06T06:34:23;5.50;;;1.80;;
63016;SDS011;50274;45.640;11.756;2023-08-06T06:36:48;5.32;;;1.92;;
63016;SDS011;50274;45.640;11.756;2023-08-06T06:39:15;5.20;;;1.50;;
63016;SDS011;50274;45.640;11.756;2023-08-06T06:41:41;5.10;;;1.50;;
63016;SDS011;50274;45.640;11.756;2023-08-06T06:44:07;3.50;;;1.20;;
63016;SDS011;50274;45.640;11.756;2023-08-06T06:46:32;4.27;;;1.37;;
63016;SDS011;50274;45.640;11.756;2023-08-06T06:48:58;4.40;;;1.60;;
63016;SDS011;50274;45.640;11.756;2023-08-06T06:51:24;6.35;;;1.48;;
63016;SDS011;50274;45.640;11.756;2023-08-06T06:53:50;4.17;;;1.03;;
63016;SDS011;50274;45.640;11.756;2023-08-06T06:56:15;3.83;;;1.20;;
63016;SDS011;50274;45.640;11.756;2023-08-06T06:58:41;3.63;;;0.90;;
63016;SDS011;50274;45.640;11.756;2023-08-06T07:01:07;4.07;;;0.97;;
63016;SDS011;50274;45.640;11.756;2023-08-06T07:03:35;4.10;;;0.90;;
63016;SDS011;50274;45.640;11.756;2023-08-06T07:06:01;6.22;;;1.08;;
63016;SDS011;50274;45.640;11.756;2023-08-06T07:08:27;4.13;;;0.83;;
63016;SDS011;50274;45.640;11.756;2023-08-06T07:11:00;3.57;;;1.00;;
63016;SDS011;50274;45.640;11.756;2023-08-06T07:13:29;4.28;;;0.70;;
63016;SDS011;50274;45.640;11.756;2023-08-06T07:15:55;3.67;;;1.35;;
63016;SDS011;50274;45.640;11.756;2023-08-06T07:18:21;4.37;;;1.00;;
63016;SDS011;50274;45.640;11.756;2023-08-06T07:20:48;4.25;;;1.65;;
63016;SDS011;50274;45.640;11.756;2023-08-06T07:23:15;3.53;;;1.20;;
63016;SDS011;50274;45.640;11.756;2023-08-06T07:25:40;4.00;;;1.20;;
63016;SDS011;50274;45.640;11.756;2023-08-06T07:28:06;3.83;;;1.00;;
63016;SDS011;50274;45.640;11.756;2023-08-06T07:30:32;4.78;;;1.15;;
63016;SDS011;50274;45.640;11.756;2023-08-06T07:32:58;4.80;;;1.20;;
63016;SDS011;50274;45.640;11.756;2023-08-06T07:35:24;7.95;;;2.10;;
63016;SDS011;50274;45.640;11.756;2023-08-06T07:37:49;4.53;;;1.52;;
63016;SDS011;50274;45.640;11.756;2023-08-06T07:40:15;4.50;;;1.57;;
63016;SDS011;50274;45.640;11.756;2023-08-06T07:42:41;3.72;;;1.20;;
63016;SDS011;50274;45.640;11.756;2023-08-06T07:45:07;3.63;;;1.20;;
63016;SDS011;50274;45.640;11.756;2023-08-06T07:47:34;4.47;;;1.10;;
63016;SDS011;50274;45.640;11.756;2023-08-06T07:49:59;3.70;;;1.15;;
63016;SDS011;50274;45.640;11.756;2023-08-06T07:52:25;7.63;;;1.20;;
63016;SDS011;50274;45.640;11.756;2023-08-06T07:54:51;6.63;;;1.20;;
63016;SDS011;50274;45.640;11.756;2023-08-06T07:57:17;3.88;;;1.23;;
63016;SDS011;50274;45.640;11.756;2023-08-06T07:59:43;4.33;;;1.00;;
63016;SDS011;50274;45.640;11.756;2023-08-06T08:02:08;3.47;;;1.13;;
63016;SDS011;50274;45.640;11.756;2023-08-06T08:04:34;3.72;;;1.08;;
63016;SDS011;50274;45.640;11.756;2023-08-06T08:07:00;4.13;;;1.30;;
63016;SDS011;50274;45.640;11.756;2023-08-06T08:09:26;4.07;;;1.15;;
63016;SDS011;50274;45.640;11.756;2023-08-06T08:11:52;4.53;;;1.10;;
63016;SDS011;50274;45.640;11.756;2023-08-06T08:14:17;5.00;;;1.23;;
63016;SDS011;50274;45.640;11.756;2023-08-06T08:16:43;4.38;;;1.20;;
63016;SDS011;50274;45.640;11.756;2023-08-06T08:19:09;3.30;;;1.00;;
63016;SDS011;50274;45.640;11.756;2023-08-06T08:21:35;4.20;;;1.38;;
63016;SDS011;50274;45.640;11.756;2023-08-06T08:24:01;4.38;;;1.52;;
63016;SDS011;50274;45.640;11.756;2023-08-06T08:26:28;5.10;;;1.67;;
63016;SDS011;50274;45.640;11.756;2023-08-06T08:28:54;5.10;;;1.67;;
63016;SDS011;50274;45.640;11.756;2023-08-06T08:31:21;4.97;;;1.30;;
63016;SDS011;50274;45.640;11.756;2023-08-06T08:33:47;3.72;;;1.13;;
63016;SDS011;50274;45.640;11.756;2023-08-06T08:36:13;4.03;;;1.30;;
63016;SDS011;50274;45.640;11.756;2023-08-06T08:38:39;4.72;;;1.92;;
63016;SDS011;50274;45.640;11.756;2023-08-06T08:41:05;4.43;;;1.15;;
63016;SDS011;50274;45.640;11.756;2023-08-06T08:43:31;4.50;;;1.60;;
63016;SDS011;50274;45.640;11.756;2023-08-06T08:45:57;5.43;;;1.80;;
63016;SDS011;50274;45.640;11.756;2023-08-06T08:48:25;3.80;;;1.48;;
63016;SDS011;50274;45.640;11.756;2023-08-06T08:50:52;5.22;;;1.50;;
63016;SDS011;50274;45.640;11.756;2023-08-06T08:53:18;6.40;;;1.65;;
63016;SDS011;50274;45.640;11.756;2023-08-06T08:55:47;5.50;;;1.67;;
63016;SDS011;50274;45.640;11.756;2023-08-06T08:58:14;5.53;;;1.77;;
63016;SDS011;50274;45.640;11.756;2023-08-06T09:00:41;4.97;;;1.52;;
63016;SDS011;50274;45.640;11.756;2023-08-06T09:03:07;4.25;;;1.20;;
63016;SDS011;50274;45.640;11.756;2023-08-06T09:05:33;4.65;;;1.30;;
63016;SDS011;50274;45.640;11.756;2023-08-06T09:08:03;4.53;;;1.60;;
63016;SDS011;50274;45.640;11.756;2023-08-06T09:10:30;4.57;;;1.88;;
63016;SDS011;50274;45.640;11.756;2023-08-06T09:12:56;6.50;;;1.70;;
63016;SDS011;50274;45.640;11.756;2023-08-06T09:15:26;3.75;;;1.20;;
63016;SDS011;50274;45.640;11.756;2023-08-06T09:17:55;4.20;;;1.48;;
63016;SDS011;50274;45.640;11.756;2023-08-06T09:20:21;4.37;;;1.47;;
63016;SDS011;50274;45.640;11.756;2023-08-06T09:22:47;3.58;;;1.20;;
63016;SDS011;50274;45.640;11.756;2023-08-06T09:25:23;4.18;;;1.20;;
63016;SDS011;50274;45.640;11.756;2023-08-06T09:27:51;3.40;;;1.02;;
63016;SDS011;50274;45.640;11.756;2023-08-06T09:30:33;3.00;;;0.87;;
63016;SDS011;50274;45.640;11.756;2023-08-06T09:33:02;5.15;;;1.10;;
63016;SDS011;50274;45.640;11.756;2023-08-06T09:35:28;3.60;;;1.00;;
63016;SDS011;50274;45.640;11.756;2023-08-06T09:37:55;3.67;;;0.85;;
63016;SDS011;50274;45.640;11.756;2023-08-06T09:40:32;3.53;;;1.20;;
63016;SDS011;50274;45.640;11.756;2023-08-06T09:42:58;3.57;;;1.00;;
63016;SDS011;50274;45.640;11.756;2023-08-06T09:45:29;3.60;;;1.13;;
63016;SDS011;50274;45.640;11.756;2023-08-06T09:48:03;4.03;;;1.17;;
63016;SDS011;50274;45.640;11.756;2023-08-06T09:50:30;3.70;;;1.33;;
63016;SDS011;50274;45.640;11.756;2023-08-06T09:52:58;4.03;;;1.40;;
63016;SDS011;50274;45.640;11.756;2023-08-06T09:55:25;4.33;;;1.10;;
63016;SDS011;50274;45.640;11.756;2023-08-06T09:57:52;4.35;;;1.30;;
63016;SDS011;50274;45.640;11.756;2023-08-06T10:00:18;4.20;;;1.27;;
63016;SDS011;50274;45.640;11.756;2023-08-06T10:02:45;4.10;;;1.00;;
63016;SDS011;50274;45.640;11.756;2023-08-06T10:05:11;3.55;;;1.10;;
63016;SDS011;50274;45.640;11.756;2023-08-06T10:07:37;3.30;;;1.13;;
63016;SDS011;50274;45.640;11.756;2023-08-06T10:10:05;3.35;;;1.30;;
63016;SDS011;50274;45.640;11.756;2023-08-06T10:12:32;5.72;;;1.40;;
63016;SDS011;50274;45.640;11.756;2023-08-06T10:15:01;4.15;;;0.90;;
63016;SDS011;50274;45.640;11.756;2023-08-06T10:17:32;4.65;;;1.10;;
63016;SDS011;50274;45.640;11.756;2023-08-06T10:20:00;3.70;;;1.30;;
63016;SDS011;50274;45.640;11.756;2023-08-06T10:22:26;3.55;;;1.20;;
63016;SDS011;50274;45.640;11.756;2023-08-06T10:24:53;4.50;;;1.00;;
63016;SDS011;50274;45.640;11.756;2023-08-06T10:27:31;2.47;;;0.65;;
63016;SDS011;50274;45.640;11.756;2023-08-06T10:32:51;3.10;;;0.90;;
63016;SDS011;50274;45.640;11.756;2023-08-06T10:40:32;3.67;;;1.10;;
63016;SDS011;50274;45.640;11.756;2023-08-06T10:42:59;3.60;;;1.03;;
63016;SDS011;50274;45.640;11.756;2023-08-06T10:45:29;3.50;;;1.10;;
63016;SDS011;50274;45.640;11.756;2023-08-06T10:47:56;3.72;;;1.25;;
63016;SDS011;50274;45.640;11.756;2023-08-06T10:50:23;4.60;;;1.25;;
63016;SDS011;50274;45.640;11.756;2023-08-06T10:52:49;3.88;;;1.63;;
63016;SDS011;50274;45.640;11.756;2023-08-06T10:55:25;3.93;;;1.30;;
63016;SDS011;50274;45.640;11.756;2023-08-06T10:57:52;5.03;;;1.30;;
63016;SDS011;50274;45.640;11.756;2023-08-06T11:00:18;5.32;;;1.10;;
63016;SDS011;50274;45.640;11.756;2023-08-06T11:02:47;4.25;;;1.58;;
63016;SDS011;50274;45.640;11.756;2023-08-06T11:05:16;4.65;;;1.25;;
63016;SDS011;50274;45.640;11.756;2023-08-06T11:07:42;3.90;;;1.10;;
63016;SDS011;50274;45.640;11.756;2023-08-06T11:10:10;5.38;;;1.30;;
63016;SDS011;50274;45.640;11.756;2023-08-06T11:12:37;3.25;;;0.80;;
63016;SDS011;50274;45.640;11.756;2023-08-06T11:15:04;3.30;;;1.10;;
63016;SDS011;50274;45.640;11.756;2023-08-06T11:17:31;4.30;;;1.20;;
63016;SDS011;50274;45.640;11.756;2023-08-06T11:20:04;4.32;;;1.20;;
63016;SDS011;50274;45.640;11.756;2023-08-06T11:22:30;3.10;;;0.80;;
63016;SDS011;50274;45.640;11.756;2023-08-06T11:24:56;3.45;;;0.88;;
63016;SDS011;50274;45.640;11.756;2023-08-06T11:27:22;3.75;;;0.90;;
63016;SDS011;50274;45.640;11.756;2023-08-06T11:29:51;3.13;;;0.83;;
63016;SDS011;50274;45.640;11.756;2023-08-06T11:32:17;4.85;;;0.85;;
63016;SDS011;50274;45.640;11.756;2023-08-06T11:34:43;6.15;;;1.00;;
63016;SDS011;50274;45.640;11.756;2023-08-06T11:37:09;3.10;;;0.90;;
63016;SDS011;50274;45.640;11.756;2023-08-06T11:39:36;4.53;;;0.90;;
63016;SDS011;50274;45.640;11.756;2023-08-06T11:42:03;4.05;;;0.98;;
63016;SDS011;50274;45.640;11.756;2023-08-06T11:44:31;3.20;;;0.88;;
63016;SDS011;50274;45.640;11.756;2023-08-06T11:47:01;3.65;;;1.10;;
63016;SDS011;50274;45.640;11.756;2023-08-06T11:49:39;3.72;;;1.15;;
63016;SDS011;50274;45.640;11.756;2023-08-06T11:52:10;4.37;;;1.10;;
63016;SDS011;50274;45.640;11.756;2023-08-06T11:54:44;3.47;;;1.02;;
63016;SDS011;50274;45.640;11.756;2023-08-06T11:57:25;2.60;;;0.70;;
63016;SDS011;50274;45.640;11.756;2023-08-06T11:59:51;4.70;;;1.00;;
63016;SDS011;50274;45.640;11.756;2023-08-06T12:02:18;3.47;;;0.70;;
63016;SDS011;50274;45.640;11.756;2023-08-06T12:05:00;2.90;;;0.70;;
63016;SDS011;50274;45.640;11.756;2023-08-06T12:07:33;4.35;;;0.75;;
63016;SDS011;50274;45.640;11.756;2023-08-06T12:10:03;3.13;;;0.70;;
63016;SDS011;50274;45.640;11.756;2023-08-06T12:12:30;3.50;;;1.05;;
63016;SDS011;50274;45.640;11.756;2023-08-06T12:14:56;4.77;;;0.87;;
63016;SDS011;50274;45.640;11.756;2023-08-06T12:17:22;3.60;;;0.63;;
63016;SDS011;50274;45.640;11.756;2023-08-06T12:19:49;3.95;;;0.82;;
63016;SDS011;50274;45.640;11.756;2023-08-06T12:22:15;2.97;;;0.70;;
63016;SDS011;50274;45.640;11.756;2023-08-06T12:24:43;5.03;;;0.88;;
63016;SDS011;50274;45.640;11.756;2023-08-06T12:27:11;3.42;;;0.82;;
63016;SDS011;50274;45.640;11.756;2023-08-06T12:29:41;2.50;;;0.50;;
63016;SDS011;50274;45.640;11.756;2023-08-06T12:32:10;4.47;;;0.90;;
63016;SDS011;50274;45.640;11.756;2023-08-06T12:34:37;3.47;;;0.60;;
63016;SDS011;50274;45.640;11.756;2023-08-06T12:37:04;3.50;;;0.40;;
63016;SDS011;50274;45.640;11.756;2023-08-06T12:39:30;2.80;;;0.70;;
63016;SDS011;50274;45.640;11.756;2023-08-06T12:41:57;3.20;;;0.85;;
63016;SDS011;50274;45.640;11.756;2023-08-06T12:44:26;3.17;;;0.70;;
63016;SDS011;50274;45.640;11.756;2023-08-06T12:46:52;2.50;;;0.50;;
63016;SDS011;50274;45.640;11.756;2023-08-06T12:49:19;4.70;;;0.60;;
63016;SDS011;50274;45.640;11.756;2023-08-06T12:51:48;3.78;;;0.80;;
63016;SDS011;50274;45.640;11.756;2023-08-06T12:54:16;3.22;;;0.80;;
63016;SDS011;50274;45.640;11.756;2023-08-06T12:56:43;3.72;;;0.60;;
63016;SDS011;50274;45.640;11.756;2023-08-06T12:59:09;3.93;;;0.60;;
63016;SDS011;50274;45.640;11.756;2023-08-06T13:01:36;3.05;;;1.00;;
63016;SDS011;50274;45.640;11.756;2023-08-06T13:04:02;2.80;;;0.68;;
63016;SDS011;50274;45.640;11.756;2023-08-06T13:06:29;2.63;;;0.60;;
63016;SDS011;50274;45.640;11.756;2023-08-06T13:08:56;3.55;;;0.70;;
63016;SDS011;50274;45.640;11.756;2023-08-06T13:11:22;3.83;;;0.90;;
63016;SDS011;50274;45.640;11.756;2023-08-06T13:13:48;3.10;;;0.90;;
63016;SDS011;50274;45.640;11.756;2023-08-06T13:16:14;3.17;;;0.80;;
63016;SDS011;50274;45.640;11.756;2023-08-06T13:18:40;3.00;;;0.80;;
63016;SDS011;50274;45.640;11.756;2023-08-06T13:21:06;3.10;;;1.00;;
63016;SDS011;50274;45.640;11.756;2023-08-06T13:23:32;3.42;;;1.05;;
63016;SDS011;50274;45.640;11.756;2023-08-06T13:25:58;4.90;;;1.10;;
63016;SDS011;50274;45.640;11.756;2023-08-06T13:28:24;3.60;;;1.10;;
63016;SDS011;50274;45.640;11.756;2023-08-06T13:33:53;3.53;;;1.00;;
63016;SDS011;50274;45.640;11.756;2023-08-06T13:36:23;3.30;;;0.80;;
63016;SDS011;50274;45.640;11.756;2023-08-06T13:38:50;4.23;;;0.80;;
63016;SDS011;50274;45.640;11.756;2023-08-06T13:41:16;4.68;;;0.90;;
63016;SDS011;50274;45.640;11.756;2023-08-06T13:43:42;3.60;;;0.80;;
63016;SDS011;50274;45.640;11.756;2023-08-06T13:46:09;4.07;;;1.10;;
63016;SDS011;50274;45.640;11.756;2023-08-06T13:48:41;3.27;;;0.90;;
63016;SDS011;50274;45.640;11.756;2023-08-06T13:51:07;4.18;;;1.13;;
63016;SDS011;50274;45.640;11.756;2023-08-06T13:53:33;4.43;;;1.00;;
63016;SDS011;50274;45.640;11.756;2023-08-06T13:55:59;3.47;;;1.10;;
63016;SDS011;50274;45.640;11.756;2023-08-06T13:58:25;3.33;;;1.23;;
63016;SDS011;50274;45.640;11.756;2023-08-06T14:00:51;4.80;;;1.35;;
63016;SDS011;50274;45.640;11.756;2023-08-06T14:03:19;3.25;;;1.05;;
63016;SDS011;50274;45.640;11.756;2023-08-06T14:05:45;4.60;;;1.27;;
63016;SDS011;50274;45.640;11.756;2023-08-06T14:08:11;3.03;;;0.90;;
63016;SDS011;50274;45.640;11.756;2023-08-06T14:10:37;4.60;;;1.10;;
63016;SDS011;50274;45.640;11.756;2023-08-06T14:13:03;3.42;;;0.90;;
63016;SDS011;50274;45.640;11.756;2023-08-06T14:18:50;4.28;;;0.90;;
63016;SDS011;50274;45.640;11.756;2023-08-06T14:21:16;3.53;;;1.13;;
63016;SDS011;50274;45.640;11.756;2023-08-06T14:23:42;4.83;;;0.90;;
63016;SDS011;50274;45.640;11.756;2023-08-06T14:26:07;4.95;;;0.90;;
63016;SDS011;50274;45.640;11.756;2023-08-06T14:28:35;3.70;;;0.80;;
63016;SDS011;50274;45.640;11.756;2023-08-06T14:31:01;4.55;;;0.73;;
63016;SDS011;50274;45.640;11.756;2023-08-06T14:33:27;3.43;;;0.73;;
63016;SDS011;50274;45.640;11.756;2023-08-06T14:35:53;4.38;;;0.95;;
63016;SDS011;50274;45.640;11.756;2023-08-06T14:38:19;6.10;;;1.10;;
63016;SDS011;50274;45.640;11.756;2023-08-06T14:40:45;5.13;;;1.10;;
63016;SDS011;50274;45.640;11.756;2023-08-06T14:43:10;3.13;;;0.70;;
63016;SDS011;50274;45.640;11.756;2023-08-06T14:45:39;3.87;;;0.77;;
63016;SDS011;50274;45.640;11.756;2023-08-06T14:48:05;3.53;;;0.90;;
63016;SDS011;50274;45.640;11.756;2023-08-06T14:50:31;3.25;;;0.73;;